createdAt,value
2019-04-16T00:02:57.689Z,37.23
2019-04-16T00:08:03.063Z,37.90
2019-04-16T00:13:27.008Z,37.57
2019-04-16T00:18:30.741Z,39.00
2019-04-16T00:23:38.483Z,38.73
2019-04-16T00:28:42.096Z,37.73
2019-04-16T00:33:45.659Z,36.93
2019-04-16T00:38:53.819Z,38.73
2019-04-16T00:43:54.628Z,37.33
2019-04-16T00:48:58.361Z,36.73
2019-04-16T00:54:02.080Z,37.03
2019-04-16T00:59:05.791Z,36.73
2019-04-16T01:04:09.472Z,35.73
2019-04-16T01:09:13.222Z,37.17
2019-04-16T01:14:16.809Z,40.07
2019-04-16T01:19:20.420Z,38.30
2019-04-16T01:24:24.116Z,36.57
2019-04-16T01:29:27.928Z,35.93
2019-04-16T01:34:47.084Z,36.53
2019-04-16T01:40:03.861Z,37.97
2019-04-16T01:45:07.659Z,36.38
2019-04-16T01:50:13.919Z,35.38
2019-04-16T01:55:17.380Z,35.43
2019-04-16T02:00:21.105Z,35.37
2019-04-16T02:05:24.867Z,36.23
2019-04-16T02:10:28.580Z,38.07
2019-04-16T02:15:32.241Z,37.63
2019-04-16T02:20:39.493Z,38.63
2019-04-16T02:25:41.974Z,38.73
2019-04-16T02:30:46.116Z,38.78
2019-04-16T02:35:49.782Z,38.90
2019-04-16T02:40:53.537Z,38.67
2019-04-16T02:45:58.763Z,36.80
2019-04-16T02:51:08.593Z,33.75
2019-04-16T02:56:30.728Z,33.83
2019-04-16T03:01:42.292Z,33.53
2019-04-16T03:06:46.096Z,35.13
2019-04-16T03:11:49.948Z,34.67
2019-04-16T03:17:11.886Z,35.83
2019-04-16T03:22:15.708Z,35.08
2019-04-16T03:27:22.064Z,33.83
2019-04-16T03:32:29.452Z,33.63
2019-04-16T03:37:30.281Z,34.50
2019-04-16T03:42:35.132Z,33.03
2019-04-16T03:47:38.819Z,35.17
2019-04-16T03:52:45.731Z,33.40
2019-04-16T03:57:47.851Z,33.93
2019-04-16T04:02:55.174Z,33.07
2019-04-16T04:07:57.144Z,32.97
2019-04-16T04:13:00.779Z,32.93
2019-04-16T04:18:08.026Z,35.80
2019-04-16T04:23:09.989Z,34.17
2019-04-16T04:28:18.549Z,34.30
2019-04-16T04:33:23.354Z,34.57
2019-04-16T04:38:27.087Z,36.30
2019-04-16T04:43:31.993Z,36.93
2019-04-16T04:48:36.171Z,37.87
2019-04-16T04:53:39.868Z,38.13
2019-04-16T04:58:43.512Z,45.13
2019-04-16T05:03:54.495Z,43.87
2019-04-16T05:09:00.465Z,57.97
2019-04-16T05:14:03.693Z,57.57
2019-04-16T05:19:07.416Z,49.03
2019-04-16T05:24:11.186Z,46.87
2019-04-16T05:29:17.072Z,45.60
2019-04-16T05:34:20.097Z,50.12
2019-04-16T05:39:26.685Z,49.93
2019-04-16T05:44:33.210Z,51.40
2019-04-16T05:49:34.217Z,53.50
2019-04-16T05:54:55.743Z,55.48
2019-04-16T05:59:59.314Z,60.40
2019-04-16T06:05:03.111Z,65.60
2019-04-16T06:10:07.873Z,69.37
2019-04-16T06:15:13.255Z,61.07
2019-04-16T06:20:27.736Z,55.97
2019-04-16T06:25:42.308Z,57.70
2019-04-16T06:30:50.453Z,57.83
2019-04-16T06:35:58.262Z,58.13
2019-04-16T06:41:04.222Z,57.67
2019-04-16T06:46:12.639Z,53.15
2019-04-16T06:51:34.287Z,47.40
2019-04-16T06:56:42.237Z,47.00
2019-04-16T07:01:50.299Z,46.30
2019-04-16T07:07:13.318Z,46.03
2019-04-16T07:12:18.653Z,45.77
2019-04-16T07:17:22.519Z,45.53
2019-04-16T07:22:26.209Z,45.47
2019-04-16T07:27:36.119Z,45.43
2019-04-16T07:37:59.464Z,43.97
2019-04-16T07:43:21.088Z,43.53
2019-04-16T07:48:32.899Z,43.93
2019-04-16T07:53:56.456Z,45.07
2019-04-16T07:59:01.636Z,44.70
2019-04-16T08:04:05.685Z,44.83
2019-04-16T08:09:09.402Z,45.40
2019-04-16T08:14:14.715Z,44.90
2019-04-16T08:19:18.488Z,44.90
2019-04-16T08:24:32.641Z,45.87
2019-04-16T08:29:36.255Z,46.03
2019-04-16T08:34:39.951Z,46.07
2019-04-16T08:39:43.601Z,46.00
2019-04-16T08:44:47.287Z,44.60
2019-04-16T08:49:54.135Z,45.60
2019-04-16T08:54:56.201Z,45.37
2019-04-16T08:59:59.904Z,46.07
2019-04-16T09:05:06.271Z,45.40
2019-04-16T09:10:19.098Z,45.87
2019-04-16T09:15:21.957Z,46.10
2019-04-16T09:20:27.302Z,46.73
2019-04-16T09:25:32.602Z,46.17
2019-04-16T09:30:46.610Z,46.30
2019-04-16T09:35:50.510Z,47.43
2019-04-16T09:41:08.332Z,47.95
2019-04-16T09:46:21.599Z,47.30
2019-04-16T09:56:29.927Z,49.00
2019-04-16T10:01:38.447Z,48.97
2019-04-16T10:06:42.271Z,49.03
2019-04-16T10:11:45.918Z,48.53
2019-04-16T10:16:49.674Z,48.33
2019-04-16T10:21:54.295Z,48.73
2019-04-16T10:26:59.965Z,48.20
2019-04-16T10:32:04.430Z,48.63
2019-04-16T10:37:08.092Z,49.37
2019-04-16T10:42:28.196Z,47.60
2019-04-16T10:47:42.376Z,48.03
2019-04-16T10:52:54.003Z,48.73
2019-04-16T10:58:13.603Z,47.97
2019-04-16T11:03:24.440Z,48.37
2019-04-16T11:08:28.292Z,48.38
2019-04-16T11:13:36.432Z,49.73
2019-04-16T11:18:40.620Z,49.15
2019-04-16T11:23:44.303Z,49.77
2019-04-16T11:28:48.041Z,49.13
2019-04-16T11:33:51.889Z,50.40
2019-04-16T11:38:55.545Z,49.63
2019-04-16T11:44:13.497Z,49.98
2019-04-16T11:49:05.107Z,50.63
2019-04-16T11:54:11.465Z,49.73
2019-04-16T11:59:14.194Z,50.52
2019-04-16T12:04:28.174Z,50.23
2019-04-16T12:09:33.535Z,50.08
2019-04-16T12:14:44.847Z,49.67
2019-04-16T12:19:53.106Z,48.58
2019-04-16T12:25:14.959Z,49.98
2019-04-16T12:30:36.568Z,48.98
2019-04-16T12:35:45.469Z,49.60
2019-04-16T12:40:56.616Z,48.58
2019-04-16T12:46:04.748Z,49.55
2019-04-16T12:51:10.064Z,50.33
2019-04-16T12:56:32.075Z,49.20
2019-04-16T13:01:37.344Z,50.90
2019-04-16T13:06:46.789Z,51.20
2019-04-16T13:12:09.858Z,50.78
2019-04-16T13:17:18.688Z,51.28
2019-04-16T13:22:31.012Z,50.83
2019-04-16T13:27:36.357Z,51.37
2019-04-16T13:32:40.105Z,51.25
2019-04-16T13:37:43.852Z,50.40
2019-04-16T13:42:47.472Z,51.30
2019-04-16T13:47:55.862Z,50.65
2019-04-16T13:58:13.338Z,50.55
2019-04-16T14:03:20.800Z,51.23
2019-04-16T14:08:23.894Z,50.30
2019-04-16T14:13:27.511Z,50.48
2019-04-16T14:18:32.749Z,49.83
2019-04-16T14:23:36.664Z,50.23
2019-04-16T14:28:52.081Z,49.85
2019-04-16T14:34:03.785Z,50.72
2019-04-16T14:39:16.086Z,49.98
2019-04-16T14:44:21.342Z,49.08
2019-04-16T14:49:25.101Z,50.30
2019-04-16T14:54:30.434Z,50.23
2019-04-16T14:59:44.539Z,50.15
2019-04-16T15:05:04.796Z,49.60
2019-04-16T15:10:19.447Z,50.40
2019-04-16T15:15:27.459Z,50.10
2019-04-16T15:20:48.675Z,50.58
2019-04-16T15:26:05.999Z,49.30
2019-04-16T15:31:13.888Z,50.30
2019-04-16T15:36:25.232Z,49.83
2019-04-16T15:41:49.098Z,49.53
2019-04-16T15:47:00.372Z,49.63
2019-04-16T15:52:21.863Z,48.96
2019-04-16T15:57:32.977Z,49.97
2019-04-16T16:02:41.174Z,49.50
2019-04-16T16:07:46.459Z,49.10
2019-04-16T16:12:50.976Z,49.23
2019-04-16T16:17:55.475Z,47.90
2019-04-16T16:22:59.469Z,48.77
2019-04-16T16:28:03.412Z,48.57
2019-04-16T16:33:07.115Z,48.03
2019-04-16T16:38:11.151Z,47.43
2019-04-16T16:43:16.152Z,47.83
2019-04-16T16:48:21.889Z,48.10
2019-04-16T16:53:32.594Z,47.57
2019-04-16T16:58:43.995Z,47.40
2019-04-16T17:04:01.338Z,47.40
2019-04-16T17:09:07.999Z,46.83
2019-04-16T17:14:11.631Z,47.20
2019-04-16T17:19:15.411Z,46.27
2019-04-16T17:24:19.123Z,46.37
2019-04-16T17:29:22.861Z,47.60
2019-04-16T17:34:26.723Z,47.87
2019-04-16T17:39:47.376Z,47.97
2019-04-16T17:45:09.050Z,47.93
2019-04-16T17:50:32.301Z,48.37
2019-04-16T17:55:54.002Z,49.83
2019-04-16T18:01:16.058Z,48.30
2019-04-16T18:06:21.486Z,47.60
2019-04-16T18:11:26.841Z,47.20
2019-04-16T18:16:38.228Z,46.53
2019-04-16T18:21:43.615Z,47.03
2019-04-16T18:27:00.280Z,45.47
2019-04-16T18:32:14.692Z,43.17
2019-04-16T18:37:20.194Z,44.57
2019-04-16T18:42:41.887Z,49.13
2019-04-16T18:48:01.068Z,49.07
2019-04-16T18:57:55.672Z,57.27
2019-04-16T19:02:59.534Z,56.85
2019-04-16T19:08:05.190Z,57.27
2019-04-16T19:13:11.495Z,54.57
2019-04-16T19:18:19.499Z,61.50
2019-04-16T19:23:21.383Z,51.93
2019-04-16T19:28:25.653Z,52.00
2019-04-16T19:33:33.344Z,49.40
2019-04-16T19:38:35.869Z,47.80
2019-04-16T19:43:40.108Z,53.03
2019-04-16T19:48:44.367Z,51.37
2019-04-16T19:53:48.567Z,51.93
2019-04-16T19:58:52.518Z,52.53
2019-04-16T20:03:56.419Z,53.03
2019-04-16T20:09:00.214Z,51.10
2019-04-16T20:14:04.026Z,51.47
2019-04-16T20:19:08.006Z,47.60
2019-04-16T20:24:11.730Z,47.47
2019-04-16T20:29:15.714Z,47.03
2019-04-16T20:34:19.531Z,46.50
2019-04-16T20:39:23.199Z,58.10
2019-04-16T20:44:26.929Z,55.50
2019-04-16T20:49:30.603Z,62.63
2019-04-16T20:54:34.425Z,58.40
2019-04-16T20:59:39.184Z,52.67
2019-04-16T21:04:43.044Z,52.30
2019-04-16T21:09:46.785Z,45.90
2019-04-16T21:14:50.919Z,44.70
2019-04-16T21:19:55.807Z,44.03
2019-04-16T21:24:59.593Z,45.10
2019-04-16T21:30:11.171Z,52.37
2019-04-16T21:35:31.700Z,49.20
2019-04-16T21:40:34.525Z,44.15
2019-04-16T21:45:38.233Z,45.67
2019-04-16T21:50:44.520Z,49.70
2019-04-16T21:55:47.080Z,49.63
2019-04-16T22:00:53.954Z,47.53
2019-04-16T22:05:57.987Z,44.67
2019-04-16T22:11:01.836Z,42.63
2019-04-16T22:16:05.546Z,43.97
2019-04-16T22:21:10.960Z,47.50
2019-04-16T22:26:14.628Z,45.20
2019-04-16T22:31:20.893Z,46.13
2019-04-16T22:36:23.754Z,43.20
2019-04-16T22:41:35.023Z,40.80
2019-04-16T22:46:42.935Z,41.63
2019-04-16T22:51:46.565Z,41.97
2019-04-16T22:56:51.942Z,41.77
2019-04-16T23:01:55.614Z,39.60
2019-04-16T23:06:59.363Z,41.23
2019-04-16T23:12:03.129Z,43.57
2019-04-16T23:17:06.777Z,41.67
2019-04-16T23:22:14.189Z,41.80
2019-04-16T23:27:15.613Z,41.30
2019-04-16T23:32:19.248Z,44.07
2019-04-16T23:37:23.933Z,41.47
2019-04-16T23:42:27.697Z,41.23
2019-04-16T23:47:42.869Z,41.10
2019-04-16T23:53:00.556Z,41.20
2019-04-16T23:58:05.932Z,40.45
